sensor_id;sensor_type;location;lat;lon;timestamp;temperature;humidity
18884;DHT22;9574;47.282;9.640;2022-07-03T00:01:31;20.30;99.90
18884;DHT22;9574;47.282;9.640;2022-07-03T00:03:58;20.30;99.90
18884;DHT22;9574;47.282;9.640;2022-07-03T00:06:27;20.30;99.90
18884;DHT22;9574;47.282;9.640;2022-07-03T00:08:57;20.30;99.90
18884;DHT22;9574;47.282;9.640;2022-07-03T00:11:25;20.30;99.90
18884;DHT22;9574;47.282;9.640;2022-07-03T00:13:52;20.10;99.90
18884;DHT22;9574;47.282;9.640;2022-07-03T00:16:19;20.10;99.90
18884;DHT22;9574;47.282;9.640;2022-07-03T00:18:46;20.10;99.90
18884;DHT22;9574;47.282;9.640;2022-07-03T00:21:19;20.10;99.90
18884;DHT22;9574;47.282;9.640;2022-07-03T00:23:52;20.00;99.90
18884;DHT22;9574;47.282;9.640;2022-07-03T00:26:21;20.00;99.90
18884;DHT22;9574;47.282;9.640;2022-07-03T00:28:48;20.00;99.90
18884;DHT22;9574;47.282;9.640;2022-07-03T00:31:16;20.00;99.90
18884;DHT22;9574;47.282;9.640;2022-07-03T00:33:43;20.00;99.90
18884;DHT22;9574;47.282;9.640;2022-07-03T00:36:12;20.00;99.90
18884;DHT22;9574;47.282;9.640;2022-07-03T00:38:40;20.00;99.90
18884;DHT22;9574;47.282;9.640;2022-07-03T00:41:24;19.90;99.90
18884;DHT22;9574;47.282;9.640;2022-07-03T00:43:52;19.90;99.90
18884;DHT22;9574;47.282;9.640;2022-07-03T00:46:21;19.80;99.90
18884;DHT22;9574;47.282;9.640;2022-07-03T00:48:49;19.70;99.90
18884;DHT22;9574;47.282;9.640;2022-07-03T00:51:21;19.60;99.90
18884;DHT22;9574;47.282;9.640;2022-07-03T00:53:50;19.80;99.90
18884;DHT22;9574;47.282;9.640;2022-07-03T00:56:23;19.90;99.90
18884;DHT22;9574;47.282;9.640;2022-07-03T00:58:53;19.90;99.90
18884;DHT22;9574;47.282;9.640;2022-07-03T01:01:22;19.80;99.90
18884;DHT22;9574;47.282;9.640;2022-07-03T01:04:02;19.70;99.90
18884;DHT22;9574;47.282;9.640;2022-07-03T01:06:33;19.70;99.90
18884;DHT22;9574;47.282;9.640;2022-07-03T01:09:03;19.70;99.90
18884;DHT22;9574;47.282;9.640;2022-07-03T01:11:37;19.70;99.90
18884;DHT22;9574;47.282;9.640;2022-07-03T01:14:15;19.60;99.90
18884;DHT22;9574;47.282;9.640;2022-07-03T01:16:53;19.60;99.90
18884;DHT22;9574;47.282;9.640;2022-07-03T01:19:35;19.60;99.90
18884;DHT22;9574;47.282;9.640;2022-07-03T01:22:25;19.70;99.90
18884;DHT22;9574;47.282;9.640;2022-07-03T01:25:14;19.70;99.90
18884;DHT22;9574;47.282;9.640;2022-07-03T01:27:57;19.60;99.90
18884;DHT22;9574;47.282;9.640;2022-07-03T01:30:27;19.60;99.90
18884;DHT22;9574;47.282;9.640;2022-07-03T01:32:58;19.60;99.90
18884;DHT22;9574;47.282;9.640;2022-07-03T01:35:32;19.60;99.90
18884;DHT22;9574;47.282;9.640;2022-07-03T01:38:05;19.50;99.90
18884;DHT22;9574;47.282;9.640;2022-07-03T01:40:34;19.50;99.90
18884;DHT22;9574;47.282;9.640;2022-07-03T01:43:05;19.40;99.90
18884;DHT22;9574;47.282;9.640;2022-07-03T01:45:34;19.40;99.90
18884;DHT22;9574;47.282;9.640;2022-07-03T01:48:02;19.50;99.90
18884;DHT22;9574;47.282;9.640;2022-07-03T01:50:32;19.40;99.90
18884;DHT22;9574;47.282;9.640;2022-07-03T01:53:01;19.40;99.90
18884;DHT22;9574;47.282;9.640;2022-07-03T01:55:31;19.40;99.90
18884;DHT22;9574;47.282;9.640;2022-07-03T01:57:59;19.20;99.90
18884;DHT22;9574;47.282;9.640;2022-07-03T02:00:28;19.10;99.90
18884;DHT22;9574;47.282;9.640;2022-07-03T02:03:01;19.20;99.90
18884;DHT22;9574;47.282;9.640;2022-07-03T02:05:34;19.50;99.90
18884;DHT22;9574;47.282;9.640;2022-07-03T02:08:22;19.80;99.90
18884;DHT22;9574;47.282;9.640;2022-07-03T02:11:08;19.70;99.90
18884;DHT22;9574;47.282;9.640;2022-07-03T02:13:39;19.50;99.90
18884;DHT22;9574;47.282;9.640;2022-07-03T02:16:14;19.30;99.90
18884;DHT22;9574;47.282;9.640;2022-07-03T02:18:43;19.20;99.90
18884;DHT22;9574;47.282;9.640;2022-07-03T02:21:14;19.10;99.90
18884;DHT22;9574;47.282;9.640;2022-07-03T02:23:49;19.00;99.90
18884;DHT22;9574;47.282;9.640;2022-07-03T02:26:22;19.00;99.90
18884;DHT22;9574;47.282;9.640;2022-07-03T02:28:58;18.80;99.90
18884;DHT22;9574;47.282;9.640;2022-07-03T02:31:34;18.80;99.90
18884;DHT22;9574;47.282;9.640;2022-07-03T02:34:05;18.70;99.90
18884;DHT22;9574;47.282;9.640;2022-07-03T02:36:34;18.70;99.90
18884;DHT22;9574;47.282;9.640;2022-07-03T02:39:02;18.60;99.90
18884;DHT22;9574;47.282;9.640;2022-07-03T02:41:39;18.70;99.90
18884;DHT22;9574;47.282;9.640;2022-07-03T02:44:16;18.60;99.90
18884;DHT22;9574;47.282;9.640;2022-07-03T02:46:54;18.60;99.90
18884;DHT22;9574;47.282;9.640;2022-07-03T02:49:47;18.60;99.90
18884;DHT22;9574;47.282;9.640;2022-07-03T02:52:27;18.60;99.90
18884;DHT22;9574;47.282;9.640;2022-07-03T02:54:59;18.60;99.90
18884;DHT22;9574;47.282;9.640;2022-07-03T02:57:29;18.50;99.90
18884;DHT22;9574;47.282;9.640;2022-07-03T03:00:03;18.50;99.90
18884;DHT22;9574;47.282;9.640;2022-07-03T03:02:53;18.50;99.90
18884;DHT22;9574;47.282;9.640;2022-07-03T03:05:26;18.50;99.90
18884;DHT22;9574;47.282;9.640;2022-07-03T03:08:01;18.70;99.90
18884;DHT22;9574;47.282;9.640;2022-07-03T03:10:29;18.60;99.90
18884;DHT22;9574;47.282;9.640;2022-07-03T03:13:03;18.60;99.90
18884;DHT22;9574;47.282;9.640;2022-07-03T03:15:31;18.70;99.90
18884;DHT22;9574;47.282;9.640;2022-07-03T03:18:02;18.70;99.90
18884;DHT22;9574;47.282;9.640;2022-07-03T03:20:31;18.60;99.90
18884;DHT22;9574;47.282;9.640;2022-07-03T03:23:12;18.60;99.90
18884;DHT22;9574;47.282;9.640;2022-07-03T03:25:42;18.60;99.90
18884;DHT22;9574;47.282;9.640;2022-07-03T03:28:09;18.50;99.90
18884;DHT22;9574;47.282;9.640;2022-07-03T03:30:37;18.50;99.90
18884;DHT22;9574;47.282;9.640;2022-07-03T03:33:05;18.50;99.90
18884;DHT22;9574;47.282;9.640;2022-07-03T03:35:35;18.50;99.90
18884;DHT22;9574;47.282;9.640;2022-07-03T03:38:02;18.80;99.90
18884;DHT22;9574;47.282;9.640;2022-07-03T03:40:30;18.80;99.90
18884;DHT22;9574;47.282;9.640;2022-07-03T03:42:58;18.80;99.90
18884;DHT22;9574;47.282;9.640;2022-07-03T03:45:25;18.70;99.90
18884;DHT22;9574;47.282;9.640;2022-07-03T03:47:52;18.80;99.90
18884;DHT22;9574;47.282;9.640;2022-07-03T03:50:20;18.80;99.90
18884;DHT22;9574;47.282;9.640;2022-07-03T03:52:47;18.70;99.90
18884;DHT22;9574;47.282;9.640;2022-07-03T03:55:15;18.50;99.90
18884;DHT22;9574;47.282;9.640;2022-07-03T03:57:42;18.40;99.90
18884;DHT22;9574;47.282;9.640;2022-07-03T04:00:09;18.40;99.90
18884;DHT22;9574;47.282;9.640;2022-07-03T04:02:37;18.30;99.90
18884;DHT22;9574;47.282;9.640;2022-07-03T04:05:05;18.30;99.90
18884;DHT22;9574;47.282;9.640;2022-07-03T04:07:33;18.40;99.90
18884;DHT22;9574;47.282;9.640;2022-07-03T04:10:00;18.40;99.90
18884;DHT22;9574;47.282;9.640;2022-07-03T04:12:27;18.40;99.90
18884;DHT22;9574;47.282;9.640;2022-07-03T04:14:54;18.30;99.90
18884;DHT22;9574;47.282;9.640;2022-07-03T04:17:23;18.30;99.90
18884;DHT22;9574;47.282;9.640;2022-07-03T04:19:50;18.30;99.90
18884;DHT22;9574;47.282;9.640;2022-07-03T04:22:17;18.30;99.90
18884;DHT22;9574;47.282;9.640;2022-07-03T04:24:45;18.20;99.90
18884;DHT22;9574;47.282;9.640;2022-07-03T04:27:12;18.30;99.90
18884;DHT22;9574;47.282;9.640;2022-07-03T04:29:39;18.30;99.90
18884;DHT22;9574;47.282;9.640;2022-07-03T04:32:07;18.30;99.90
18884;DHT22;9574;47.282;9.640;2022-07-03T04:34:34;18.30;99.90
18884;DHT22;9574;47.282;9.640;2022-07-03T04:37:02;18.40;99.90
18884;DHT22;9574;47.282;9.640;2022-07-03T04:39:29;18.50;99.90
18884;DHT22;9574;47.282;9.640;2022-07-03T04:41:57;18.70;99.90
18884;DHT22;9574;47.282;9.640;2022-07-03T04:44:24;18.80;99.90
18884;DHT22;9574;47.282;9.640;2022-07-03T04:46:51;18.90;99.90
18884;DHT22;9574;47.282;9.640;2022-07-03T04:49:18;19.00;99.90
18884;DHT22;9574;47.282;9.640;2022-07-03T04:51:45;19.10;99.90
18884;DHT22;9574;47.282;9.640;2022-07-03T04:54:12;19.10;99.90
18884;DHT22;9574;47.282;9.640;2022-07-03T04:56:38;19.10;99.90
18884;DHT22;9574;47.282;9.640;2022-07-03T04:59:07;19.10;99.90
18884;DHT22;9574;47.282;9.640;2022-07-03T05:01:34;19.10;99.90
18884;DHT22;9574;47.282;9.640;2022-07-03T05:04:01;19.20;99.90
18884;DHT22;9574;47.282;9.640;2022-07-03T05:06:28;19.20;99.90
18884;DHT22;9574;47.282;9.640;2022-07-03T05:08:54;19.10;99.90
18884;DHT22;9574;47.282;9.640;2022-07-03T05:11:22;19.50;99.90
18884;DHT22;9574;47.282;9.640;2022-07-03T05:13:49;19.60;99.90
18884;DHT22;9574;47.282;9.640;2022-07-03T05:16:17;19.50;99.90
18884;DHT22;9574;47.282;9.640;2022-07-03T05:18:44;19.50;99.90
18884;DHT22;9574;47.282;9.640;2022-07-03T05:21:11;19.60;99.90
18884;DHT22;9574;47.282;9.640;2022-07-03T05:23:38;19.60;99.90
18884;DHT22;9574;47.282;9.640;2022-07-03T05:26:05;19.60;99.90
18884;DHT22;9574;47.282;9.640;2022-07-03T05:28:32;19.60;99.90
18884;DHT22;9574;47.282;9.640;2022-07-03T05:30:59;19.70;99.90
18884;DHT22;9574;47.282;9.640;2022-07-03T05:33:27;19.70;99.90
18884;DHT22;9574;47.282;9.640;2022-07-03T05:35:55;19.80;99.90
18884;DHT22;9574;47.282;9.640;2022-07-03T05:38:22;19.70;99.90
18884;DHT22;9574;47.282;9.640;2022-07-03T05:41:03;19.60;99.90
18884;DHT22;9574;47.282;9.640;2022-07-03T05:43:30;19.60;99.90
18884;DHT22;9574;47.282;9.640;2022-07-03T05:45:57;19.70;99.90
18884;DHT22;9574;47.282;9.640;2022-07-03T05:48:24;19.60;99.90
18884;DHT22;9574;47.282;9.640;2022-07-03T05:50:52;19.60;99.90
18884;DHT22;9574;47.282;9.640;2022-07-03T05:53:19;19.70;99.90
18884;DHT22;9574;47.282;9.640;2022-07-03T05:55:47;19.70;99.90
18884;DHT22;9574;47.282;9.640;2022-07-03T05:58:14;19.90;99.90
18884;DHT22;9574;47.282;9.640;2022-07-03T06:00:41;20.20;99.90
18884;DHT22;9574;47.282;9.640;2022-07-03T06:03:08;20.60;99.90
18884;DHT22;9574;47.282;9.640;2022-07-03T06:05:35;21.00;99.90
18884;DHT22;9574;47.282;9.640;2022-07-03T06:08:05;21.00;99.90
18884;DHT22;9574;47.282;9.640;2022-07-03T06:10:33;21.00;99.90
18884;DHT22;9574;47.282;9.640;2022-07-03T06:12:59;21.10;99.90
18884;DHT22;9574;47.282;9.640;2022-07-03T06:15:27;21.30;99.90
18884;DHT22;9574;47.282;9.640;2022-07-03T06:17:54;21.20;99.90
18884;DHT22;9574;47.282;9.640;2022-07-03T06:20:21;21.00;99.90
18884;DHT22;9574;47.282;9.640;2022-07-03T06:22:48;21.20;99.90
18884;DHT22;9574;47.282;9.640;2022-07-03T06:25:17;21.40;99.90
18884;DHT22;9574;47.282;9.640;2022-07-03T06:27:44;21.60;99.90
18884;DHT22;9574;47.282;9.640;2022-07-03T06:30:11;21.70;99.90
18884;DHT22;9574;47.282;9.640;2022-07-03T06:32:38;21.80;99.90
18884;DHT22;9574;47.282;9.640;2022-07-03T06:35:06;21.90;99.90
18884;DHT22;9574;47.282;9.640;2022-07-03T06:37:33;21.90;99.90
18884;DHT22;9574;47.282;9.640;2022-07-03T06:40:00;22.10;99.90
18884;DHT22;9574;47.282;9.640;2022-07-03T06:42:28;22.20;99.90
18884;DHT22;9574;47.282;9.640;2022-07-03T06:44:55;22.10;99.90
18884;DHT22;9574;47.282;9.640;2022-07-03T06:47:22;22.10;99.90
18884;DHT22;9574;47.282;9.640;2022-07-03T06:49:49;21.90;99.90
18884;DHT22;9574;47.282;9.640;2022-07-03T06:52:16;21.70;99.90
18884;DHT22;9574;47.282;9.640;2022-07-03T06:54:43;21.60;99.90
18884;DHT22;9574;47.282;9.640;2022-07-03T06:57:10;21.40;99.90
18884;DHT22;9574;47.282;9.640;2022-07-03T06:59:38;21.10;99.90
18884;DHT22;9574;47.282;9.640;2022-07-03T07:02:05;21.00;99.90
18884;DHT22;9574;47.282;9.640;2022-07-03T07:04:33;21.00;99.90
18884;DHT22;9574;47.282;9.640;2022-07-03T07:07:00;21.10;99.90
18884;DHT22;9574;47.282;9.640;2022-07-03T07:09:27;21.10;99.90
18884;DHT22;9574;47.282;9.640;2022-07-03T07:11:54;21.20;99.90
18884;DHT22;9574;47.282;9.640;2022-07-03T07:14:21;21.60;99.90
18884;DHT22;9574;47.282;9.640;2022-07-03T07:16:49;21.80;99.90
18884;DHT22;9574;47.282;9.640;2022-07-03T07:19:16;21.90;99.90
18884;DHT22;9574;47.282;9.640;2022-07-03T07:21:43;21.90;99.90
18884;DHT22;9574;47.282;9.640;2022-07-03T07:24:11;21.90;99.90
18884;DHT22;9574;47.282;9.640;2022-07-03T07:26:38;21.90;99.90
18884;DHT22;9574;47.282;9.640;2022-07-03T07:29:05;21.80;99.90
18884;DHT22;9574;47.282;9.640;2022-07-03T07:31:32;22.00;99.90
18884;DHT22;9574;47.282;9.640;2022-07-03T07:34:01;22.20;99.90
18884;DHT22;9574;47.282;9.640;2022-07-03T07:36:30;22.40;99.90
18884;DHT22;9574;47.282;9.640;2022-07-03T07:38:56;22.80;99.90
18884;DHT22;9574;47.282;9.640;2022-07-03T07:41:24;23.10;99.90
18884;DHT22;9574;47.282;9.640;2022-07-03T07:43:51;23.20;99.90
18884;DHT22;9574;47.282;9.640;2022-07-03T07:46:18;23.20;99.90
18884;DHT22;9574;47.282;9.640;2022-07-03T07:48:44;23.50;99.90
18884;DHT22;9574;47.282;9.640;2022-07-03T07:51:13;23.80;99.90
18884;DHT22;9574;47.282;9.640;2022-07-03T07:53:40;24.00;99.90
18884;DHT22;9574;47.282;9.640;2022-07-03T07:56:07;24.00;99.90
18884;DHT22;9574;47.282;9.640;2022-07-03T07:58:34;24.10;99.90
18884;DHT22;9574;47.282;9.640;2022-07-03T08:01:01;24.30;99.90
18884;DHT22;9574;47.282;9.640;2022-07-03T08:03:45;24.30;99.90
18884;DHT22;9574;47.282;9.640;2022-07-03T08:06:30;24.20;99.90
18884;DHT22;9574;47.282;9.640;2022-07-03T08:08:57;24.30;99.90
18884;DHT22;9574;47.282;9.640;2022-07-03T08:11:24;24.30;99.90
18884;DHT22;9574;47.282;9.640;2022-07-03T08:13:51;24.40;99.90
18884;DHT22;9574;47.282;9.640;2022-07-03T08:16:18;24.60;99.90
18884;DHT22;9574;47.282;9.640;2022-07-03T08:18:45;24.90;99.90
18884;DHT22;9574;47.282;9.640;2022-07-03T08:21:12;25.10;99.90
18884;DHT22;9574;47.282;9.640;2022-07-03T08:23:40;25.30;99.90
18884;DHT22;9574;47.282;9.640;2022-07-03T08:26:07;25.40;99.90
18884;DHT22;9574;47.282;9.640;2022-07-03T08:28:34;25.50;99.90
18884;DHT22;9574;47.282;9.640;2022-07-03T08:31:01;25.60;99.90
18884;DHT22;9574;47.282;9.640;2022-07-03T08:33:28;25.40;99.90
18884;DHT22;9574;47.282;9.640;2022-07-03T08:35:55;25.30;99.90
18884;DHT22;9574;47.282;9.640;2022-07-03T08:38:27;25.40;99.90
18884;DHT22;9574;47.282;9.640;2022-07-03T08:40:58;25.60;99.90
18884;DHT22;9574;47.282;9.640;2022-07-03T08:43:25;25.60;99.90
18884;DHT22;9574;47.282;9.640;2022-07-03T08:45:52;25.50;99.90
18884;DHT22;9574;47.282;9.640;2022-07-03T08:48:20;25.40;99.90
18884;DHT22;9574;47.282;9.640;2022-07-03T08:50:49;25.40;99.90
18884;DHT22;9574;47.282;9.640;2022-07-03T08:53:17;25.40;99.90
18884;DHT22;9574;47.282;9.640;2022-07-03T08:55:45;25.50;99.90
18884;DHT22;9574;47.282;9.640;2022-07-03T08:58:15;25.80;99.90
18884;DHT22;9574;47.282;9.640;2022-07-03T09:00:44;25.90;99.90
18884;DHT22;9574;47.282;9.640;2022-07-03T09:03:12;25.90;99.90
18884;DHT22;9574;47.282;9.640;2022-07-03T09:05:41;25.90;99.90
18884;DHT22;9574;47.282;9.640;2022-07-03T09:08:09;26.10;99.90
18884;DHT22;9574;47.282;9.640;2022-07-03T09:10:36;26.20;99.90
18884;DHT22;9574;47.282;9.640;2022-07-03T09:13:03;26.30;99.90
18884;DHT22;9574;47.282;9.640;2022-07-03T09:15:31;26.40;99.90
18884;DHT22;9574;47.282;9.640;2022-07-03T09:18:00;26.50;99.90
18884;DHT22;9574;47.282;9.640;2022-07-03T09:20:29;26.60;99.90
18884;DHT22;9574;47.282;9.640;2022-07-03T09:23:12;26.60;99.90
18884;DHT22;9574;47.282;9.640;2022-07-03T09:25:55;26.50;99.90
18884;DHT22;9574;47.282;9.640;2022-07-03T09:28:24;26.60;99.90
18884;DHT22;9574;47.282;9.640;2022-07-03T09:31:00;26.60;99.90
18884;DHT22;9574;47.282;9.640;2022-07-03T09:33:28;26.50;99.90
18884;DHT22;9574;47.282;9.640;2022-07-03T09:35:55;26.60;99.90
18884;DHT22;9574;47.282;9.640;2022-07-03T09:38:23;26.80;99.90
18884;DHT22;9574;47.282;9.640;2022-07-03T09:40:51;27.00;99.90
18884;DHT22;9574;47.282;9.640;2022-07-03T09:43:23;27.10;99.90
18884;DHT22;9574;47.282;9.640;2022-07-03T09:45:53;27.20;99.90
18884;DHT22;9574;47.282;9.640;2022-07-03T09:48:23;27.20;99.90
18884;DHT22;9574;47.282;9.640;2022-07-03T09:51:15;27.30;99.90
18884;DHT22;9574;47.282;9.640;2022-07-03T09:53:54;27.50;99.90
18884;DHT22;9574;47.282;9.640;2022-07-03T09:56:24;27.60;99.90
18884;DHT22;9574;47.282;9.640;2022-07-03T09:59:05;27.60;99.90
18884;DHT22;9574;47.282;9.640;2022-07-03T10:01:33;27.60;99.90
18884;DHT22;9574;47.282;9.640;2022-07-03T10:04:13;27.70;99.90
18884;DHT22;9574;47.282;9.640;2022-07-03T10:06:52;27.90;99.90
18884;DHT22;9574;47.282;9.640;2022-07-03T10:09:20;27.90;99.90
18884;DHT22;9574;47.282;9.640;2022-07-03T10:11:48;27.80;99.90
18884;DHT22;9574;47.282;9.640;2022-07-03T10:14:16;28.00;99.90
18884;DHT22;9574;47.282;9.640;2022-07-03T10:16:44;28.10;99.90
18884;DHT22;9574;47.282;9.640;2022-07-03T10:19:17;28.30;99.90
18884;DHT22;9574;47.282;9.640;2022-07-03T10:21:49;28.40;99.90
18884;DHT22;9574;47.282;9.640;2022-07-03T10:24:17;28.50;99.90
18884;DHT22;9574;47.282;9.640;2022-07-03T10:26:46;28.60;99.90
18884;DHT22;9574;47.282;9.640;2022-07-03T10:29:14;28.60;99.90
18884;DHT22;9574;47.282;9.640;2022-07-03T10:31:44;28.60;99.90
18884;DHT22;9574;47.282;9.640;2022-07-03T10:34:16;28.60;99.90
18884;DHT22;9574;47.282;9.640;2022-07-03T10:36:46;28.50;99.90
18884;DHT22;9574;47.282;9.640;2022-07-03T10:39:25;28.50;99.90
18884;DHT22;9574;47.282;9.640;2022-07-03T10:41:56;28.60;99.90
18884;DHT22;9574;47.282;9.640;2022-07-03T10:45:05;28.70;99.90
18884;DHT22;9574;47.282;9.640;2022-07-03T10:47:45;28.90;99.90
18884;DHT22;9574;47.282;9.640;2022-07-03T10:50:15;29.10;99.90
18884;DHT22;9574;47.282;9.640;2022-07-03T10:52:42;29.00;99.90
18884;DHT22;9574;47.282;9.640;2022-07-03T10:55:11;28.90;99.90
18884;DHT22;9574;47.282;9.640;2022-07-03T10:57:39;28.80;99.90
18884;DHT22;9574;47.282;9.640;2022-07-03T11:00:15;28.80;99.90
18884;DHT22;9574;47.282;9.640;2022-07-03T11:02:48;28.80;99.90
18884;DHT22;9574;47.282;9.640;2022-07-03T11:05:24;29.10;99.90
18884;DHT22;9574;47.282;9.640;2022-07-03T11:08:11;29.10;99.90
18884;DHT22;9574;47.282;9.640;2022-07-03T11:10:42;29.00;99.90
18884;DHT22;9574;47.282;9.640;2022-07-03T11:13:15;29.10;99.90
18884;DHT22;9574;47.282;9.640;2022-07-03T11:15:44;29.30;99.90
18884;DHT22;9574;47.282;9.640;2022-07-03T11:18:16;29.40;99.90
18884;DHT22;9574;47.282;9.640;2022-07-03T11:24:03;29.70;99.90
18884;DHT22;9574;47.282;9.640;2022-07-03T11:26:32;29.80;99.90
18884;DHT22;9574;47.282;9.640;2022-07-03T11:28:59;29.90;99.90
18884;DHT22;9574;47.282;9.640;2022-07-03T11:31:26;29.90;99.90
18884;DHT22;9574;47.282;9.640;2022-07-03T11:33:57;29.90;99.90
18884;DHT22;9574;47.282;9.640;2022-07-03T11:36:27;30.00;99.90
18884;DHT22;9574;47.282;9.640;2022-07-03T11:39:05;30.10;99.90
18884;DHT22;9574;47.282;9.640;2022-07-03T11:41:44;30.10;99.90
18884;DHT22;9574;47.282;9.640;2022-07-03T11:44:17;30.10;99.90
18884;DHT22;9574;47.282;9.640;2022-07-03T11:46:48;30.20;99.90
18884;DHT22;9574;47.282;9.640;2022-07-03T11:49:16;30.20;99.90
18884;DHT22;9574;47.282;9.640;2022-07-03T11:51:55;30.20;99.90
18884;DHT22;9574;47.282;9.640;2022-07-03T11:54:22;30.30;99.90
18884;DHT22;9574;47.282;9.640;2022-07-03T11:56:49;30.40;99.90
18884;DHT22;9574;47.282;9.640;2022-07-03T11:59:17;30.50;99.90
18884;DHT22;9574;47.282;9.640;2022-07-03T12:01:45;30.60;99.90
18884;DHT22;9574;47.282;9.640;2022-07-03T12:04:14;30.60;99.90
18884;DHT22;9574;47.282;9.640;2022-07-03T12:06:43;30.70;99.90
18884;DHT22;9574;47.282;9.640;2022-07-03T12:09:18;30.80;99.90
18884;DHT22;9574;47.282;9.640;2022-07-03T12:11:56;30.80;99.90
18884;DHT22;9574;47.282;9.640;2022-07-03T12:14:40;30.80;99.90
18884;DHT22;9574;47.282;9.640;2022-07-03T12:17:09;30.80;99.90
18884;DHT22;9574;47.282;9.640;2022-07-03T12:19:36;30.80;99.90
18884;DHT22;9574;47.282;9.640;2022-07-03T12:22:04;31.00;99.90
18884;DHT22;9574;47.282;9.640;2022-07-03T12:24:33;31.10;99.40
18884;DHT22;9574;47.282;9.640;2022-07-03T12:27:02;31.10;99.90
18884;DHT22;9574;47.282;9.640;2022-07-03T12:29:31;31.20;99.90
18884;DHT22;9574;47.282;9.640;2022-07-03T12:31:59;31.20;99.90
18884;DHT22;9574;47.282;9.640;2022-07-03T12:34:26;31.20;98.90
18884;DHT22;9574;47.282;9.640;2022-07-03T12:36:57;31.20;98.10
18884;DHT22;9574;47.282;9.640;2022-07-03T12:42:15;31.30;98.10
18884;DHT22;9574;47.282;9.640;2022-07-03T12:44:42;31.40;98.50
18884;DHT22;9574;47.282;9.640;2022-07-03T12:47:09;31.40;98.30
18884;DHT22;9574;47.282;9.640;2022-07-03T12:49:36;31.40;98.60
18884;DHT22;9574;47.282;9.640;2022-07-03T12:52:05;31.50;97.20
18884;DHT22;9574;47.282;9.640;2022-07-03T12:54:34;31.60;97.10
18884;DHT22;9574;47.282;9.640;2022-07-03T12:57:06;31.60;98.80
18884;DHT22;9574;47.282;9.640;2022-07-03T13:00:03;31.80;99.10
18884;DHT22;9574;47.282;9.640;2022-07-03T13:02:30;31.80;98.20
18884;DHT22;9574;47.282;9.640;2022-07-03T13:04:58;31.80;97.40
18884;DHT22;9574;47.282;9.640;2022-07-03T13:07:29;31.80;96.90
18884;DHT22;9574;47.282;9.640;2022-07-03T13:09:59;31.80;97.40
18884;DHT22;9574;47.282;9.640;2022-07-03T13:12:27;31.80;97.40
18884;DHT22;9574;47.282;9.640;2022-07-03T13:14:58;31.90;97.40
18884;DHT22;9574;47.282;9.640;2022-07-03T13:17:57;32.00;96.20
18884;DHT22;9574;47.282;9.640;2022-07-03T13:20:26;32.00;97.50
18884;DHT22;9574;47.282;9.640;2022-07-03T13:22:54;31.90;95.80
18884;DHT22;9574;47.282;9.640;2022-07-03T13:25:21;31.80;97.80
18884;DHT22;9574;47.282;9.640;2022-07-03T13:27:48;31.60;98.20
18884;DHT22;9574;47.282;9.640;2022-07-03T13:30:17;31.50;96.90
18884;DHT22;9574;47.282;9.640;2022-07-03T13:32:44;31.40;96.60
18884;DHT22;9574;47.282;9.640;2022-07-03T13:35:13;31.20;97.80
18884;DHT22;9574;47.282;9.640;2022-07-03T13:37:40;31.10;97.70
18884;DHT22;9574;47.282;9.640;2022-07-03T13:40:07;31.20;98.80
18884;DHT22;9574;47.282;9.640;2022-07-03T13:42:34;31.20;97.70
18884;DHT22;9574;47.282;9.640;2022-07-03T13:45:02;31.20;98.40
18884;DHT22;9574;47.282;9.640;2022-07-03T13:47:29;31.40;98.60
18884;DHT22;9574;47.282;9.640;2022-07-03T13:49:56;31.50;98.00
18884;DHT22;9574;47.282;9.640;2022-07-03T13:52:25;31.60;97.10
18884;DHT22;9574;47.282;9.640;2022-07-03T13:54:51;31.70;98.00
18884;DHT22;9574;47.282;9.640;2022-07-03T13:57:18;31.80;97.60
18884;DHT22;9574;47.282;9.640;2022-07-03T13:59:45;31.90;96.30
18884;DHT22;9574;47.282;9.640;2022-07-03T14:02:13;31.80;96.00
18884;DHT22;9574;47.282;9.640;2022-07-03T14:04:40;31.90;97.10
18884;DHT22;9574;47.282;9.640;2022-07-03T14:07:07;31.90;96.40
18884;DHT22;9574;47.282;9.640;2022-07-03T14:09:35;32.00;97.10
18884;DHT22;9574;47.282;9.640;2022-07-03T14:12:03;32.10;97.80
18884;DHT22;9574;47.282;9.640;2022-07-03T14:14:30;32.20;96.00
18884;DHT22;9574;47.282;9.640;2022-07-03T14:16:57;32.20;96.00
18884;DHT22;9574;47.282;9.640;2022-07-03T14:19:24;32.20;95.80
18884;DHT22;9574;47.282;9.640;2022-07-03T14:21:51;32.10;96.00
18884;DHT22;9574;47.282;9.640;2022-07-03T14:24:18;32.10;95.50
18884;DHT22;9574;47.282;9.640;2022-07-03T14:26:46;32.00;96.40
18884;DHT22;9574;47.282;9.640;2022-07-03T14:29:30;32.10;95.90
18884;DHT22;9574;47.282;9.640;2022-07-03T14:32:14;32.00;96.20
18884;DHT22;9574;47.282;9.640;2022-07-03T14:34:57;32.00;95.90
18884;DHT22;9574;47.282;9.640;2022-07-03T14:37:24;32.00;96.30
18884;DHT22;9574;47.282;9.640;2022-07-03T14:39:51;32.20;96.60
18884;DHT22;9574;47.282;9.640;2022-07-03T14:42:20;32.20;95.70
18884;DHT22;9574;47.282;9.640;2022-07-03T14:44:47;32.20;95.10
18884;DHT22;9574;47.282;9.640;2022-07-03T14:47:14;32.10;94.70
18884;DHT22;9574;47.282;9.640;2022-07-03T14:49:41;32.00;94.70
18884;DHT22;9574;47.282;9.640;2022-07-03T14:52:09;32.00;94.30
18884;DHT22;9574;47.282;9.640;2022-07-03T14:54:36;32.10;96.00
18884;DHT22;9574;47.282;9.640;2022-07-03T14:57:09;32.20;94.50
18884;DHT22;9574;47.282;9.640;2022-07-03T14:59:48;32.20;94.50
18884;DHT22;9574;47.282;9.640;2022-07-03T15:02:19;32.20;94.70
18884;DHT22;9574;47.282;9.640;2022-07-03T15:04:58;32.30;95.40
18884;DHT22;9574;47.282;9.640;2022-07-03T15:07:31;32.20;94.70
18884;DHT22;9574;47.282;9.640;2022-07-03T15:10:04;32.20;96.10
18884;DHT22;9574;47.282;9.640;2022-07-03T15:12:34;32.20;96.80
18884;DHT22;9574;47.282;9.640;2022-07-03T15:15:09;32.30;94.20
18884;DHT22;9574;47.282;9.640;2022-07-03T15:17:36;32.20;94.10
18884;DHT22;9574;47.282;9.640;2022-07-03T15:20:04;32.20;93.80
18884;DHT22;9574;47.282;9.640;2022-07-03T15:22:31;32.10;94.40
18884;DHT22;9574;47.282;9.640;2022-07-03T15:24:59;32.00;95.20
18884;DHT22;9574;47.282;9.640;2022-07-03T15:27:27;32.00;95.00
18884;DHT22;9574;47.282;9.640;2022-07-03T15:29:56;32.00;95.00
18884;DHT22;9574;47.282;9.640;2022-07-03T15:32:25;31.90;94.90
18884;DHT22;9574;47.282;9.640;2022-07-03T15:34:53;31.70;95.70
18884;DHT22;9574;47.282;9.640;2022-07-03T15:37:33;31.50;95.20
18884;DHT22;9574;47.282;9.640;2022-07-03T15:40:04;31.40;96.80
18884;DHT22;9574;47.282;9.640;2022-07-03T15:42:45;31.40;95.50
18884;DHT22;9574;47.282;9.640;2022-07-03T15:45:28;31.40;94.60
18884;DHT22;9574;47.282;9.640;2022-07-03T15:48:07;31.30;95.20
18884;DHT22;9574;47.282;9.640;2022-07-03T15:50:43;31.30;95.30
18884;DHT22;9574;47.282;9.640;2022-07-03T15:53:19;31.20;95.60
18884;DHT22;9574;47.282;9.640;2022-07-03T15:55:48;31.20;95.20
18884;DHT22;9574;47.282;9.640;2022-07-03T15:58:26;31.10;95.30
18884;DHT22;9574;47.282;9.640;2022-07-03T16:00:56;31.20;95.30
18884;DHT22;9574;47.282;9.640;2022-07-03T16:03:47;31.10;94.70
18884;DHT22;9574;47.282;9.640;2022-07-03T16:06:16;31.00;94.60
18884;DHT22;9574;47.282;9.640;2022-07-03T16:08:47;31.00;95.90
18884;DHT22;9574;47.282;9.640;2022-07-03T16:11:14;31.10;95.60